sensor_id;sensor_type;location;lat;lon;timestamp;temperature;humidity
20773;DHT22;10546;50.674;4.616;2022-10-19T05:35:41;9.00;99.90
20773;DHT22;10546;50.674;4.616;2022-10-19T05:38:06;8.90;99.90
20773;DHT22;10546;50.674;4.616;2022-10-19T05:40:32;9.00;99.90
20773;DHT22;10546;50.674;4.616;2022-10-19T05:42:57;8.90;99.90
20773;DHT22;10546;50.674;4.616;2022-10-19T05:45:23;8.90;99.90
20773;DHT22;10546;50.674;4.616;2022-10-19T05:47:48;8.90;99.90
20773;DHT22;10546;50.674;4.616;2022-10-19T05:50:14;8.90;99.90
20773;DHT22;10546;50.674;4.616;2022-10-19T05:52:40;8.90;99.90
20773;DHT22;10546;50.674;4.616;2022-10-19T05:55:06;9.10;99.90
20773;DHT22;10546;50.674;4.616;2022-10-19T05:57:31;8.90;99.90
20773;DHT22;10546;50.674;4.616;2022-10-19T05:59:57;8.90;99.90
20773;DHT22;10546;50.674;4.616;2022-10-19T06:02:23;8.90;99.90
20773;DHT22;10546;50.674;4.616;2022-10-19T06:04:48;9.00;99.90
20773;DHT22;10546;50.674;4.616;2022-10-19T06:07:14;8.90;99.90
20773;DHT22;10546;50.674;4.616;2022-10-19T06:09:40;8.90;99.90
20773;DHT22;10546;50.674;4.616;2022-10-19T06:12:05;8.90;99.90
20773;DHT22;10546;50.674;4.616;2022-10-19T06:14:31;8.80;99.90
20773;DHT22;10546;50.674;4.616;2022-10-19T06:16:57;8.80;99.90
20773;DHT22;10546;50.674;4.616;2022-10-19T06:19:22;8.90;99.90
20773;DHT22;10546;50.674;4.616;2022-10-19T06:21:48;9.00;99.90
20773;DHT22;10546;50.674;4.616;2022-10-19T06:24:14;9.10;99.90
20773;DHT22;10546;50.674;4.616;2022-10-19T06:26:39;9.00;99.90
20773;DHT22;10546;50.674;4.616;2022-10-19T06:29:05;8.90;99.90
20773;DHT22;10546;50.674;4.616;2022-10-19T06:31:34;8.80;99.90
20773;DHT22;10546;50.674;4.616;2022-10-19T06:34:01;8.80;99.90
20773;DHT22;10546;50.674;4.616;2022-10-19T06:36:29;9.00;99.90
20773;DHT22;10546;50.674;4.616;2022-10-19T06:38:55;8.80;99.90
20773;DHT22;10546;50.674;4.616;2022-10-19T06:41:29;8.80;99.90
20773;DHT22;10546;50.674;4.616;2022-10-19T06:43:55;8.80;99.90
20773;DHT22;10546;50.674;4.616;2022-10-19T06:46:23;8.90;99.90
20773;DHT22;10546;50.674;4.616;2022-10-19T06:51:19;9.10;99.90
20773;DHT22;10546;50.674;4.616;2022-10-19T06:53:45;8.90;99.90
20773;DHT22;10546;50.674;4.616;2022-10-19T06:56:11;8.90;99.90
20773;DHT22;10546;50.674;4.616;2022-10-19T06:58:37;9.10;99.90
20773;DHT22;10546;50.674;4.616;2022-10-19T07:01:04;9.00;99.90
20773;DHT22;10546;50.674;4.616;2022-10-19T07:03:31;9.00;99.90
20773;DHT22;10546;50.674;4.616;2022-10-19T07:05:59;9.10;99.90
20773;DHT22;10546;50.674;4.616;2022-10-19T07:08:27;9.20;99.90
20773;DHT22;10546;50.674;4.616;2022-10-19T07:10:55;9.20;99.90
20773;DHT22;10546;50.674;4.616;2022-10-19T07:13:22;9.40;99.90
20773;DHT22;10546;50.674;4.616;2022-10-19T07:15:48;9.30;99.90
20773;DHT22;10546;50.674;4.616;2022-10-19T07:18:14;9.50;99.90
20773;DHT22;10546;50.674;4.616;2022-10-19T07:20:39;9.30;99.90
20773;DHT22;10546;50.674;4.616;2022-10-19T07:23:05;9.30;99.90
20773;DHT22;10546;50.674;4.616;2022-10-19T07:25:31;9.50;99.90
20773;DHT22;10546;50.674;4.616;2022-10-19T07:27:57;9.50;99.90
20773;DHT22;10546;50.674;4.616;2022-10-19T07:30:23;9.50;99.90
20773;DHT22;10546;50.674;4.616;2022-10-19T07:32:49;9.60;99.90
20773;DHT22;10546;50.674;4.616;2022-10-19T07:35:14;9.70;99.90
20773;DHT22;10546;50.674;4.616;2022-10-19T07:37:40;9.70;99.90
20773;DHT22;10546;50.674;4.616;2022-10-19T07:40:06;9.70;99.90
20773;DHT22;10546;50.674;4.616;2022-10-19T07:42:32;9.70;99.90
20773;DHT22;10546;50.674;4.616;2022-10-19T07:44:58;9.90;99.90
20773;DHT22;10546;50.674;4.616;2022-10-19T07:47:23;9.80;99.90
20773;DHT22;10546;50.674;4.616;2022-10-19T07:49:49;10.00;99.90
20773;DHT22;10546;50.674;4.616;2022-10-19T07:52:15;9.80;99.90
20773;DHT22;10546;50.674;4.616;2022-10-19T07:54:41;9.70;99.90
20773;DHT22;10546;50.674;4.616;2022-10-19T07:57:06;9.60;99.90
20773;DHT22;10546;50.674;4.616;2022-10-19T07:59:33;9.80;99.90
20773;DHT22;10546;50.674;4.616;2022-10-19T08:01:58;9.90;99.90
20773;DHT22;10546;50.674;4.616;2022-10-19T08:04:26;9.90;99.90
20773;DHT22;10546;50.674;4.616;2022-10-19T08:06:52;10.10;99.90
20773;DHT22;10546;50.674;4.616;2022-10-19T08:09:18;10.30;99.90
20773;DHT22;10546;50.674;4.616;2022-10-19T08:11:43;10.40;99.90
20773;DHT22;10546;50.674;4.616;2022-10-19T08:14:09;10.50;99.90
20773;DHT22;10546;50.674;4.616;2022-10-19T08:16:38;10.80;99.90
20773;DHT22;10546;50.674;4.616;2022-10-19T08:19:10;10.90;99.90
20773;DHT22;10546;50.674;4.616;2022-10-19T08:21:38;11.10;99.90
20773;DHT22;10546;50.674;4.616;2022-10-19T08:24:04;11.40;99.90
20773;DHT22;10546;50.674;4.616;2022-10-19T08:26:31;11.30;99.90
20773;DHT22;10546;50.674;4.616;2022-10-19T08:29:02;11.50;99.90
20773;DHT22;10546;50.674;4.616;2022-10-19T08:31:29;11.60;99.90
20773;DHT22;10546;50.674;4.616;2022-10-19T08:33:55;11.80;99.90
20773;DHT22;10546;50.674;4.616;2022-10-19T08:36:21;11.70;99.90
20773;DHT22;10546;50.674;4.616;2022-10-19T08:38:47;12.00;99.90
20773;DHT22;10546;50.674;4.616;2022-10-19T08:49:32;12.60;99.90
20773;DHT22;10546;50.674;4.616;2022-10-19T08:52:31;13.00;99.90
20773;DHT22;10546;50.674;4.616;2022-10-19T08:55:09;12.90;99.90
20773;DHT22;10546;50.674;4.616;2022-10-19T09:03:18;12.80;99.90
20773;DHT22;10546;50.674;4.616;2022-10-19T09:08:14;13.20;99.90
20773;DHT22;10546;50.674;4.616;2022-10-19T09:10:42;13.40;99.90
20773;DHT22;10546;50.674;4.616;2022-10-19T09:14:26;13.40;99.90
20773;DHT22;10546;50.674;4.616;2022-10-19T09:16:19;13.10;99.90
20773;DHT22;10546;50.674;4.616;2022-10-19T09:18:45;13.40;99.90
20773;DHT22;10546;50.674;4.616;2022-10-19T09:21:12;13.30;99.90
20773;DHT22;10546;50.674;4.616;2022-10-19T09:26:28;13.10;99.90
20773;DHT22;10546;50.674;4.616;2022-10-19T09:31:40;14.30;99.90
20773;DHT22;10546;50.674;4.616;2022-10-19T09:34:21;14.60;99.90
20773;DHT22;10546;50.674;4.616;2022-10-19T09:36:52;14.90;99.90
20773;DHT22;10546;50.674;4.616;2022-10-19T09:39:18;15.00;99.90
20773;DHT22;10546;50.674;4.616;2022-10-19T09:41:53;15.30;99.90
20773;DHT22;10546;50.674;4.616;2022-10-19T09:44:19;15.80;99.90
20773;DHT22;10546;50.674;4.616;2022-10-19T09:49:41;17.30;99.90
20773;DHT22;10546;50.674;4.616;2022-10-19T09:55:04;17.70;99.90
20773;DHT22;10546;50.674;4.616;2022-10-19T09:57:30;17.50;99.90
20773;DHT22;10546;50.674;4.616;2022-10-19T09:59:56;17.80;99.90
20773;DHT22;10546;50.674;4.616;2022-10-19T10:02:31;17.70;99.90
20773;DHT22;10546;50.674;4.616;2022-10-19T10:05:05;17.60;99.90
20773;DHT22;10546;50.674;4.616;2022-10-19T10:07:35;17.80;99.90
20773;DHT22;10546;50.674;4.616;2022-10-19T10:10:08;18.10;99.90
20773;DHT22;10546;50.674;4.616;2022-10-19T10:12:35;18.70;99.90
20773;DHT22;10546;50.674;4.616;2022-10-19T10:15:03;18.80;99.90
20773;DHT22;10546;50.674;4.616;2022-10-19T10:17:30;18.30;99.90
20773;DHT22;10546;50.674;4.616;2022-10-19T10:22:27;18.10;99.90
20773;DHT22;10546;50.674;4.616;2022-10-19T10:24:54;18.30;99.90
20773;DHT22;10546;50.674;4.616;2022-10-19T10:27:32;18.40;99.90
20773;DHT22;10546;50.674;4.616;2022-10-19T10:29:58;19.10;99.90
20773;DHT22;10546;50.674;4.616;2022-10-19T10:32:29;19.50;99.90
20773;DHT22;10546;50.674;4.616;2022-10-19T10:35:01;19.40;99.90
20773;DHT22;10546;50.674;4.616;2022-10-19T10:37:33;19.30;99.90
20773;DHT22;10546;50.674;4.616;2022-10-19T10:39:59;19.40;99.90
20773;DHT22;10546;50.674;4.616;2022-10-19T10:42:41;19.50;99.90
20773;DHT22;10546;50.674;4.616;2022-10-19T10:45:29;19.50;99.90
20773;DHT22;10546;50.674;4.616;2022-10-19T10:47:56;19.80;99.90
20773;DHT22;10546;50.674;4.616;2022-10-19T10:50:29;19.50;99.90
20773;DHT22;10546;50.674;4.616;2022-10-19T10:53:02;19.40;99.90
20773;DHT22;10546;50.674;4.616;2022-10-19T10:55:29;20.10;99.90
20773;DHT22;10546;50.674;4.616;2022-10-19T10:58:14;20.30;99.90
20773;DHT22;10546;50.674;4.616;2022-10-19T11:00:42;19.60;99.90
20773;DHT22;10546;50.674;4.616;2022-10-19T11:03:20;19.60;99.90
20773;DHT22;10546;50.674;4.616;2022-10-19T11:05:50;19.00;99.90
20773;DHT22;10546;50.674;4.616;2022-10-19T11:08:55;18.60;99.90
20773;DHT22;10546;50.674;4.616;2022-10-19T11:11:48;18.80;99.90
20773;DHT22;10546;50.674;4.616;2022-10-19T11:14:24;19.10;99.90
20773;DHT22;10546;50.674;4.616;2022-10-19T11:16:52;19.50;99.90
20773;DHT22;10546;50.674;4.616;2022-10-19T11:24:54;18.80;99.90
20773;DHT22;10546;50.674;4.616;2022-10-19T11:27:32;18.80;99.90
20773;DHT22;10546;50.674;4.616;2022-10-19T11:30:05;18.60;99.90
20773;DHT22;10546;50.674;4.616;2022-10-19T11:32:51;18.70;99.90
20773;DHT22;10546;50.674;4.616;2022-10-19T11:35:50;18.30;99.90
20773;DHT22;10546;50.674;4.616;2022-10-19T11:38:37;18.20;99.90
20773;DHT22;10546;50.674;4.616;2022-10-19T11:43:51;17.60;99.90
20773;DHT22;10546;50.674;4.616;2022-10-19T11:46:24;17.80;99.90
20773;DHT22;10546;50.674;4.616;2022-10-19T11:51:43;17.50;99.90
20773;DHT22;10546;50.674;4.616;2022-10-19T11:54:35;17.30;99.90
20773;DHT22;10546;50.674;4.616;2022-10-19T11:57:20;17.30;99.90
20773;DHT22;10546;50.674;4.616;2022-10-19T12:00:20;17.10;99.90
20773;DHT22;10546;50.674;4.616;2022-10-19T12:05:24;17.00;99.90
20773;DHT22;10546;50.674;4.616;2022-10-19T12:10:46;17.20;99.90
20773;DHT22;10546;50.674;4.616;2022-10-19T12:13:22;17.30;99.90
20773;DHT22;10546;50.674;4.616;2022-10-19T12:15:52;17.30;99.90
20773;DHT22;10546;50.674;4.616;2022-10-19T12:18:29;17.20;99.90
20773;DHT22;10546;50.674;4.616;2022-10-19T12:21:00;17.40;99.90
20773;DHT22;10546;50.674;4.616;2022-10-19T12:23:38;17.60;99.90
20773;DHT22;10546;50.674;4.616;2022-10-19T12:26:08;17.50;99.90
20773;DHT22;10546;50.674;4.616;2022-10-19T12:28:37;17.70;99.90
20773;DHT22;10546;50.674;4.616;2022-10-19T12:31:04;18.10;99.90
20773;DHT22;10546;50.674;4.616;2022-10-19T12:36:46;18.20;99.90
20773;DHT22;10546;50.674;4.616;2022-10-19T12:45:11;18.40;99.90
20773;DHT22;10546;50.674;4.616;2022-10-19T12:56:06;18.20;99.90
20773;DHT22;10546;50.674;4.616;2022-10-19T12:58:58;18.10;99.90
20773;DHT22;10546;50.674;4.616;2022-10-19T13:04:12;18.10;99.90
20773;DHT22;10546;50.674;4.616;2022-10-19T13:07:04;18.20;99.90
20773;DHT22;10546;50.674;4.616;2022-10-19T13:09:38;17.90;99.90
20773;DHT22;10546;50.674;4.616;2022-10-19T13:22:42;18.10;99.90
20773;DHT22;10546;50.674;4.616;2022-10-19T13:27:57;18.10;99.90
20773;DHT22;10546;50.674;4.616;2022-10-19T14:11:25;17.50;99.90
20773;DHT22;10546;50.674;4.616;2022-10-19T14:16:58;17.60;99.90
20773;DHT22;10546;50.674;4.616;2022-10-19T14:19:28;17.50;99.90
20773;DHT22;10546;50.674;4.616;2022-10-19T14:21:57;17.10;99.90
20773;DHT22;10546;50.674;4.616;2022-10-19T14:24:34;16.90;99.90
20773;DHT22;10546;50.674;4.616;2022-10-19T14:27:02;17.00;99.90
20773;DHT22;10546;50.674;4.616;2022-10-19T14:29:30;17.00;99.90
20773;DHT22;10546;50.674;4.616;2022-10-19T14:31:58;16.90;99.90
20773;DHT22;10546;50.674;4.616;2022-10-19T14:34:24;16.90;99.90
20773;DHT22;10546;50.674;4.616;2022-10-19T14:36:50;17.00;99.90
20773;DHT22;10546;50.674;4.616;2022-10-19T14:39:42;17.00;99.90
20773;DHT22;10546;50.674;4.616;2022-10-19T14:42:20;16.80;99.90
20773;DHT22;10546;50.674;4.616;2022-10-19T14:44:46;16.80;99.90
20773;DHT22;10546;50.674;4.616;2022-10-19T14:47:23;16.90;99.90
20773;DHT22;10546;50.674;4.616;2022-10-19T14:49:50;16.70;99.90
20773;DHT22;10546;50.674;4.616;2022-10-19T14:52:30;16.70;99.90
20773;DHT22;10546;50.674;4.616;2022-10-19T14:55:00;16.60;99.90
20773;DHT22;10546;50.674;4.616;2022-10-19T14:57:32;16.60;99.90
20773;DHT22;10546;50.674;4.616;2022-10-19T15:00:03;16.50;99.90
20773;DHT22;10546;50.674;4.616;2022-10-19T15:02:33;16.50;99.90
20773;DHT22;10546;50.674;4.616;2022-10-19T15:05:02;16.50;99.90
20773;DHT22;10546;50.674;4.616;2022-10-19T15:07:37;16.50;99.90
20773;DHT22;10546;50.674;4.616;2022-10-19T15:10:23;16.40;99.90
20773;DHT22;10546;50.674;4.616;2022-10-19T15:12:55;16.30;99.90
20773;DHT22;10546;50.674;4.616;2022-10-19T15:15:25;16.20;99.90
20773;DHT22;10546;50.674;4.616;2022-10-19T15:20:29;16.00;99.90
20773;DHT22;10546;50.674;4.616;2022-10-19T15:22:58;16.00;99.90
20773;DHT22;10546;50.674;4.616;2022-10-19T15:25:31;16.00;99.90
20773;DHT22;10546;50.674;4.616;2022-10-19T15:28:18;15.80;99.90
20773;DHT22;10546;50.674;4.616;2022-10-19T15:30:44;15.80;99.90
20773;DHT22;10546;50.674;4.616;2022-10-19T15:33:13;15.70;99.90
20773;DHT22;10546;50.674;4.616;2022-10-19T15:35:42;15.70;99.90
20773;DHT22;10546;50.674;4.616;2022-10-19T15:38:27;15.70;99.90
20773;DHT22;10546;50.674;4.616;2022-10-19T15:40:58;15.60;99.90
20773;DHT22;10546;50.674;4.616;2022-10-19T15:46:05;15.50;99.90
20773;DHT22;10546;50.674;4.616;2022-10-19T15:54:06;15.40;99.90
20773;DHT22;10546;50.674;4.616;2022-10-19T15:56:35;15.30;99.90
20773;DHT22;10546;50.674;4.616;2022-10-19T15:59:03;15.30;99.90
20773;DHT22;10546;50.674;4.616;2022-10-19T16:01:32;15.20;99.90
20773;DHT22;10546;50.674;4.616;2022-10-19T16:03:59;15.30;99.90
20773;DHT22;10546;50.674;4.616;2022-10-19T16:06:27;15.20;99.90
20773;DHT22;10546;50.674;4.616;2022-10-19T16:08:53;15.20;99.90
20773;DHT22;10546;50.674;4.616;2022-10-19T16:11:20;15.20;99.90
20773;DHT22;10546;50.674;4.616;2022-10-19T16:13:47;15.10;99.90
20773;DHT22;10546;50.674;4.616;2022-10-19T16:16:28;15.00;99.90
20773;DHT22;10546;50.674;4.616;2022-10-19T16:18:55;15.00;99.90
20773;DHT22;10546;50.674;4.616;2022-10-19T16:21:23;15.10;99.90
20773;DHT22;10546;50.674;4.616;2022-10-19T16:23:50;15.00;99.90
20773;DHT22;10546;50.674;4.616;2022-10-19T16:26:16;14.90;99.90
20773;DHT22;10546;50.674;4.616;2022-10-19T16:28:42;14.90;99.90
20773;DHT22;10546;50.674;4.616;2022-10-19T16:31:09;14.90;99.90
20773;DHT22;10546;50.674;4.616;2022-10-19T16:33:34;14.90;99.90
20773;DHT22;10546;50.674;4.616;2022-10-19T16:36:05;14.90;99.90
20773;DHT22;10546;50.674;4.616;2022-10-19T16:38:32;14.80;99.90
20773;DHT22;10546;50.674;4.616;2022-10-19T16:41:08;14.70;99.90
20773;DHT22;10546;50.674;4.616;2022-10-19T16:43:34;14.70;99.90
20773;DHT22;10546;50.674;4.616;2022-10-19T16:46:01;14.70;99.90
20773;DHT22;10546;50.674;4.616;2022-10-19T16:48:27;14.70;99.90
20773;DHT22;10546;50.674;4.616;2022-10-19T16:53:31;14.60;99.90
20773;DHT22;10546;50.674;4.616;2022-10-19T16:56:08;14.50;99.90
20773;DHT22;10546;50.674;4.616;2022-10-19T16:58:34;14.50;99.90
20773;DHT22;10546;50.674;4.616;2022-10-19T17:01:30;14.40;99.90
20773;DHT22;10546;50.674;4.616;2022-10-19T17:03:56;14.30;99.90
20773;DHT22;10546;50.674;4.616;2022-10-19T17:06:23;14.30;99.90
20773;DHT22;10546;50.674;4.616;2022-10-19T17:08:49;14.20;99.90
20773;DHT22;10546;50.674;4.616;2022-10-19T17:11:20;14.30;99.90
20773;DHT22;10546;50.674;4.616;2022-10-19T17:13:48;14.20;99.90
20773;DHT22;10546;50.674;4.616;2022-10-19T17:16:15;14.20;99.90
20773;DHT22;10546;50.674;4.616;2022-10-19T17:18:42;14.10;99.90
20773;DHT22;10546;50.674;4.616;2022-10-19T17:21:22;14.20;99.90
20773;DHT22;10546;50.674;4.616;2022-10-19T17:23:52;14.10;99.90
20773;DHT22;10546;50.674;4.616;2022-10-19T17:26:23;14.00;99.90
20773;DHT22;10546;50.674;4.616;2022-10-19T17:28:49;14.00;99.90
20773;DHT22;10546;50.674;4.616;2022-10-19T17:31:14;14.00;99.90
20773;DHT22;10546;50.674;4.616;2022-10-19T17:33:42;13.90;99.90
20773;DHT22;10546;50.674;4.616;2022-10-19T17:36:12;13.90;99.90
20773;DHT22;10546;50.674;4.616;2022-10-19T17:38:38;13.80;99.90
20773;DHT22;10546;50.674;4.616;2022-10-19T17:41:07;13.80;99.90
20773;DHT22;10546;50.674;4.616;2022-10-19T17:43:33;13.80;99.90
20773;DHT22;10546;50.674;4.616;2022-10-19T17:46:01;13.80;99.90
20773;DHT22;10546;50.674;4.616;2022-10-19T17:48:28;13.80;99.90
20773;DHT22;10546;50.674;4.616;2022-10-19T17:51:03;13.70;99.90
20773;DHT22;10546;50.674;4.616;2022-10-19T17:53:30;13.70;99.90
20773;DHT22;10546;50.674;4.616;2022-10-19T17:56:04;13.70;99.90
20773;DHT22;10546;50.674;4.616;2022-10-19T17:58:35;13.70;99.90
20773;DHT22;10546;50.674;4.616;2022-10-19T18:01:04;13.70;99.90
20773;DHT22;10546;50.674;4.616;2022-10-19T18:03:32;13.70;99.90
20773;DHT22;10546;50.674;4.616;2022-10-19T18:06:01;13.60;99.90
20773;DHT22;10546;50.674;4.616;2022-10-19T18:08:33;13.70;99.90
20773;DHT22;10546;50.674;4.616;2022-10-19T18:11:07;13.60;99.90
20773;DHT22;10546;50.674;4.616;2022-10-19T18:13:40;13.70;99.90
20773;DHT22;10546;50.674;4.616;2022-10-19T18:16:19;13.70;99.90
20773;DHT22;10546;50.674;4.616;2022-10-19T18:18:52;13.70;99.90
20773;DHT22;10546;50.674;4.616;2022-10-19T18:21:26;13.70;99.90
20773;DHT22;10546;50.674;4.616;2022-10-19T18:24:01;13.70;99.90
20773;DHT22;10546;50.674;4.616;2022-10-19T18:26:33;13.60;99.90
20773;DHT22;10546;50.674;4.616;2022-10-19T18:29:05;13.60;99.90
20773;DHT22;10546;50.674;4.616;2022-10-19T18:31:38;13.60;99.90
20773;DHT22;10546;50.674;4.616;2022-10-19T18:34:09;13.50;99.90
20773;DHT22;10546;50.674;4.616;2022-10-19T18:36:37;13.50;99.90
20773;DHT22;10546;50.674;4.616;2022-10-19T18:39:04;13.50;99.90
20773;DHT22;10546;50.674;4.616;2022-10-19T18:41:30;13.40;99.90
20773;DHT22;10546;50.674;4.616;2022-10-19T18:44:00;13.50;99.90
20773;DHT22;10546;50.674;4.616;2022-10-19T18:46:28;13.40;99.90
20773;DHT22;10546;50.674;4.616;2022-10-19T18:48:53;13.40;99.90
20773;DHT22;10546;50.674;4.616;2022-10-19T18:51:21;13.40;99.90
20773;DHT22;10546;50.674;4.616;2022-10-19T18:53:47;13.40;99.90
20773;DHT22;10546;50.674;4.616;2022-10-19T18:56:14;13.40;99.90
20773;DHT22;10546;50.674;4.616;2022-10-19T18:58:41;13.30;99.90
20773;DHT22;10546;50.674;4.616;2022-10-19T19:01:18;13.40;99.90
20773;DHT22;10546;50.674;4.616;2022-10-19T19:03:48;13.30;99.90
20773;DHT22;10546;50.674;4.616;2022-10-19T19:06:19;13.30;99.90
20773;DHT22;10546;50.674;4.616;2022-10-19T19:08:45;13.30;99.90
20773;DHT22;10546;50.674;4.616;2022-10-19T19:11:13;13.30;99.90
20773;DHT22;10546;50.674;4.616;2022-10-19T19:13:39;13.30;99.90
20773;DHT22;10546;50.674;4.616;2022-10-19T19:16:06;13.20;99.90
20773;DHT22;10546;50.674;4.616;2022-10-19T19:18:32;13.20;99.90
20773;DHT22;10546;50.674;4.616;2022-10-19T19:21:02;13.20;99.90
20773;DHT22;10546;50.674;4.616;2022-10-19T19:23:28;13.20;99.90
20773;DHT22;10546;50.674;4.616;2022-10-19T19:25:54;13.30;99.90
20773;DHT22;10546;50.674;4.616;2022-10-19T19:28:20;13.20;99.90
20773;DHT22;10546;50.674;4.616;2022-10-19T19:30:46;13.20;99.90
20773;DHT22;10546;50.674;4.616;2022-10-19T19:33:12;13.10;99.90
20773;DHT22;10546;50.674;4.616;2022-10-19T19:35:45;13.10;99.90
20773;DHT22;10546;50.674;4.616;2022-10-19T19:38:13;13.10;99.90
20773;DHT22;10546;50.674;4.616;2022-10-19T19:40:41;13.10;99.90
20773;DHT22;10546;50.674;4.616;2022-10-19T19:43:08;13.00;99.90
20773;DHT22;10546;50.674;4.616;2022-10-19T19:45:34;13.10;99.90
20773;DHT22;10546;50.674;4.616;2022-10-19T19:48:00;13.10;99.90
20773;DHT22;10546;50.674;4.616;2022-10-19T19:50:27;13.00;99.90
20773;DHT22;10546;50.674;4.616;2022-10-19T19:52:53;12.90;99.90
20773;DHT22;10546;50.674;4.616;2022-10-19T19:55:18;12.90;99.90
20773;DHT22;10546;50.674;4.616;2022-10-19T19:57:44;13.00;99.90
20773;DHT22;10546;50.674;4.616;2022-10-19T20:00:13;12.90;99.90
20773;DHT22;10546;50.674;4.616;2022-10-19T20:02:38;12.90;99.90
20773;DHT22;10546;50.674;4.616;2022-10-19T20:05:04;12.90;99.90
20773;DHT22;10546;50.674;4.616;2022-10-19T20:07:30;12.90;99.90
20773;DHT22;10546;50.674;4.616;2022-10-19T20:09:56;12.90;99.90
20773;DHT22;10546;50.674;4.616;2022-10-19T20:12:22;12.80;99.90
20773;DHT22;10546;50.674;4.616;2022-10-19T20:14:47;12.80;99.90
20773;DHT22;10546;50.674;4.616;2022-10-19T20:17:13;12.80;99.90
20773;DHT22;10546;50.674;4.616;2022-10-19T20:19:38;12.80;99.90
20773;DHT22;10546;50.674;4.616;2022-10-19T20:22:04;12.80;99.90
20773;DHT22;10546;50.674;4.616;2022-10-19T20:24:33;12.80;99.90
20773;DHT22;10546;50.674;4.616;2022-10-19T20:26:59;12.70;99.90
20773;DHT22;10546;50.674;4.616;2022-10-19T20:29:24;12.70;99.90
20773;DHT22;10546;50.674;4.616;2022-10-19T20:31:50;12.70;99.90
20773;DHT22;10546;50.674;4.616;2022-10-19T20:34:15;12.60;99.90
20773;DHT22;10546;50.674;4.616;2022-10-19T20:36:41;12.60;99.90
20773;DHT22;10546;50.674;4.616;2022-10-19T20:39:08;12.60;99.90
20773;DHT22;10546;50.674;4.616;2022-10-19T20:41:34;12.70;99.90
20773;DHT22;10546;50.674;4.616;2022-10-19T20:44:00;12.70;99.90
20773;DHT22;10546;50.674;4.616;2022-10-19T20:46:29;12.60;99.90
20773;DHT22;10546;50.674;4.616;2022-10-19T20:48:57;12.60;99.90
20773;DHT22;10546;50.674;4.616;2022-10-19T20:51:33;12.60;99.90
20773;DHT22;10546;50.674;4.616;2022-10-19T20:54:02;12.60;99.90
20773;DHT22;10546;50.674;4.616;2022-10-19T20:56:33;12.60;99.90
20773;DHT22;10546;50.674;4.616;2022-10-19T20:59:07;12.60;99.90
20773;DHT22;10546;50.674;4.616;2022-10-19T21:01:34;12.60;99.90
20773;DHT22;10546;50.674;4.616;2022-10-19T21:04:02;12.60;99.90
20773;DHT22;10546;50.674;4.616;2022-10-19T21:06:31;12.50;99.90
20773;DHT22;10546;50.674;4.616;2022-10-19T21:09:00;12.50;99.90
20773;DHT22;10546;50.674;4.616;2022-10-19T21:11:32;12.50;99.90
20773;DHT22;10546;50.674;4.616;2022-10-19T21:14:00;12.50;99.90
20773;DHT22;10546;50.674;4.616;2022-10-19T21:16:27;12.40;99.90
20773;DHT22;10546;50.674;4.616;2022-10-19T21:19:01;12.40;99.90
20773;DHT22;10546;50.674;4.616;2022-10-19T21:21:36;12.40;99.90
20773;DHT22;10546;50.674;4.616;2022-10-19T21:24:06;12.30;99.90
20773;DHT22;10546;50.674;4.616;2022-10-19T21:26:34;12.30;99.90
20773;DHT22;10546;50.674;4.616;2022-10-19T21:29:01;12.30;99.90
20773;DHT22;10546;50.674;4.616;2022-10-19T21:31:29;12.40;99.90
20773;DHT22;10546;50.674;4.616;2022-10-19T21:33:55;12.30;99.90
20773;DHT22;10546;50.674;4.616;2022-10-19T21:36:22;12.30;99.90
20773;DHT22;10546;50.674;4.616;2022-10-19T21:38:49;12.30;99.90
20773;DHT22;10546;50.674;4.616;2022-10-19T21:41:18;12.30;99.90
20773;DHT22;10546;50.674;4.616;2022-10-19T21:43:44;12.20;99.90
20773;DHT22;10546;50.674;4.616;2022-10-19T21:46:15;12.20;99.90
20773;DHT22;10546;50.674;4.616;2022-10-19T21:48:42;12.20;99.90
20773;DHT22;10546;50.674;4.616;2022-10-19T21:53:55;12.20;99.90
20773;DHT22;10546;50.674;4.616;2022-10-19T21:56:21;12.20;99.90
20773;DHT22;10546;50.674;4.616;2022-10-19T21:58:51;12.30;99.90
20773;DHT22;10546;50.674;4.616;2022-10-19T22:01:19;12.30;99.90
20773;DHT22;10546;50.674;4.616;2022-10-19T22:03:45;12.40;99.90
